sensor_id;sensor_type;location;lat;lon;timestamp;P1;durP1;ratioP1;P2;durP2;ratioP2
2438;SDS011;14509;47.992;7.848;2024-01-30T00:01:21;2.10;;;1.90;;
2438;SDS011;14509;47.992;7.848;2024-01-30T00:03:23;2.30;;;1.90;;
2438;SDS011;14509;47.992;7.848;2024-01-30T00:05:25;3.00;;;2.40;;
2438;SDS011;14509;47.992;7.848;2024-01-30T00:07:27;2.53;;;2.05;;
2438;SDS011;14509;47.992;7.848;2024-01-30T00:09:30;2.40;;;2.03;;
2438;SDS011;14509;47.992;7.848;2024-01-30T00:11:32;2.53;;;2.00;;
2438;SDS011;14509;47.992;7.848;2024-01-30T00:13:34;3.30;;;2.23;;
2438;SDS011;14509;47.992;7.848;2024-01-30T00:15:36;3.85;;;2.30;;
2438;SDS011;14509;47.992;7.848;2024-01-30T00:17:37;2.67;;;2.00;;
2438;SDS011;14509;47.992;7.848;2024-01-30T00:19:39;3.90;;;2.17;;
2438;SDS011;14509;47.992;7.848;2024-01-30T00:21:41;3.80;;;2.15;;
2438;SDS011;14509;47.992;7.848;2024-01-30T00:23:43;2.60;;;2.20;;
2438;SDS011;14509;47.992;7.848;2024-01-30T00:25:46;4.00;;;1.98;;
2438;SDS011;14509;47.992;7.848;2024-01-30T00:27:48;2.85;;;2.00;;
2438;SDS011;14509;47.992;7.848;2024-01-30T00:29:50;2.78;;;2.00;;
2438;SDS011;14509;47.992;7.848;2024-01-30T00:31:52;2.88;;;1.80;;
2438;SDS011;14509;47.992;7.848;2024-01-30T00:33:53;2.78;;;2.30;;
2438;SDS011;14509;47.992;7.848;2024-01-30T00:35:56;3.30;;;1.90;;
2438;SDS011;14509;47.992;7.848;2024-01-30T00:37:57;3.30;;;2.00;;
2438;SDS011;14509;47.992;7.848;2024-01-30T00:39:59;2.13;;;1.77;;
2438;SDS011;14509;47.992;7.848;2024-01-30T00:42:01;2.37;;;2.10;;
2438;SDS011;14509;47.992;7.848;2024-01-30T00:44:04;2.10;;;1.70;;
2438;SDS011;14509;47.992;7.848;2024-01-30T00:46:05;2.30;;;1.92;;
2438;SDS011;14509;47.992;7.848;2024-01-30T00:48:07;2.20;;;2.00;;
2438;SDS011;14509;47.992;7.848;2024-01-30T00:50:09;2.80;;;2.13;;
2438;SDS011;14509;47.992;7.848;2024-01-30T00:52:10;3.37;;;1.97;;
2438;SDS011;14509;47.992;7.848;2024-01-30T00:54:12;2.92;;;1.98;;
2438;SDS011;14509;47.992;7.848;2024-01-30T00:56:14;1.90;;;1.70;;
2438;SDS011;14509;47.992;7.848;2024-01-30T00:58:19;2.50;;;1.63;;
2438;SDS011;14509;47.992;7.848;2024-01-30T01:00:21;3.03;;;1.92;;
2438;SDS011;14509;47.992;7.848;2024-01-30T01:02:28;2.47;;;1.75;;
2438;SDS011;14509;47.992;7.848;2024-01-30T01:04:30;2.90;;;1.83;;
2438;SDS011;14509;47.992;7.848;2024-01-30T01:06:32;2.27;;;2.00;;
2438;SDS011;14509;47.992;7.848;2024-01-30T01:08:34;3.33;;;2.40;;
2438;SDS011;14509;47.992;7.848;2024-01-30T01:10:36;3.70;;;2.00;;
2438;SDS011;14509;47.992;7.848;2024-01-30T01:12:38;2.58;;;1.80;;
2438;SDS011;14509;47.992;7.848;2024-01-30T01:14:41;2.50;;;2.20;;
2438;SDS011;14509;47.992;7.848;2024-01-30T01:16:42;2.80;;;1.80;;
2438;SDS011;14509;47.992;7.848;2024-01-30T01:18:44;2.28;;;1.92;;
2438;SDS011;14509;47.992;7.848;2024-01-30T01:20:46;2.30;;;1.98;;
2438;SDS011;14509;47.992;7.848;2024-01-30T01:22:48;2.53;;;1.75;;
2438;SDS011;14509;47.992;7.848;2024-01-30T01:24:50;4.20;;;2.10;;
2438;SDS011;14509;47.992;7.848;2024-01-30T01:26:52;2.70;;;2.00;;
2438;SDS011;14509;47.992;7.848;2024-01-30T01:28:53;5.18;;;2.17;;
2438;SDS011;14509;47.992;7.848;2024-01-30T01:30:58;2.47;;;1.90;;
2438;SDS011;14509;47.992;7.848;2024-01-30T01:33:05;1.90;;;1.70;;
2438;SDS011;14509;47.992;7.848;2024-01-30T01:35:07;3.35;;;2.35;;
2438;SDS011;14509;47.992;7.848;2024-01-30T01:37:08;2.90;;;1.80;;
2438;SDS011;14509;47.992;7.848;2024-01-30T01:39:10;1.90;;;1.70;;
2438;SDS011;14509;47.992;7.848;2024-01-30T01:41:12;4.30;;;1.80;;
2438;SDS011;14509;47.992;7.848;2024-01-30T01:43:14;2.10;;;1.75;;
2438;SDS011;14509;47.992;7.848;2024-01-30T01:45:16;2.80;;;2.00;;
2438;SDS011;14509;47.992;7.848;2024-01-30T01:47:18;2.35;;;2.00;;
2438;SDS011;14509;47.992;7.848;2024-01-30T01:49:20;2.50;;;1.80;;
2438;SDS011;14509;47.992;7.848;2024-01-30T01:51:24;2.35;;;1.85;;
2438;SDS011;14509;47.992;7.848;2024-01-30T01:53:28;2.95;;;2.10;;
2438;SDS011;14509;47.992;7.848;2024-01-30T01:55:30;2.92;;;2.22;;
2438;SDS011;14509;47.992;7.848;2024-01-30T01:57:33;2.08;;;1.52;;
2438;SDS011;14509;47.992;7.848;2024-01-30T01:59:35;2.20;;;1.80;;
2438;SDS011;14509;47.992;7.848;2024-01-30T02:01:37;2.92;;;1.70;;
2438;SDS011;14509;47.992;7.848;2024-01-30T02:03:42;2.40;;;1.83;;
2438;SDS011;14509;47.992;7.848;2024-01-30T02:05:44;2.15;;;1.60;;
2438;SDS011;14509;47.992;7.848;2024-01-30T02:07:46;2.90;;;1.90;;
2438;SDS011;14509;47.992;7.848;2024-01-30T02:09:49;2.90;;;1.80;;
2438;SDS011;14509;47.992;7.848;2024-01-30T02:11:49;1.70;;;1.60;;
2438;SDS011;14509;47.992;7.848;2024-01-30T02:13:52;2.92;;;1.83;;
2438;SDS011;14509;47.992;7.848;2024-01-30T02:15:53;2.55;;;1.70;;
2438;SDS011;14509;47.992;7.848;2024-01-30T02:17:55;3.17;;;1.65;;
2438;SDS011;14509;47.992;7.848;2024-01-30T02:19:59;1.85;;;1.40;;
2438;SDS011;14509;47.992;7.848;2024-01-30T02:22:02;2.70;;;2.00;;
2438;SDS011;14509;47.992;7.848;2024-01-30T02:24:04;2.67;;;1.65;;
2438;SDS011;14509;47.992;7.848;2024-01-30T02:26:07;2.33;;;2.13;;
2438;SDS011;14509;47.992;7.848;2024-01-30T02:28:09;3.60;;;1.67;;
2438;SDS011;14509;47.992;7.848;2024-01-30T02:30:12;3.28;;;1.70;;
2438;SDS011;14509;47.992;7.848;2024-01-30T02:32:14;2.45;;;1.80;;
2438;SDS011;14509;47.992;7.848;2024-01-30T02:34:16;1.80;;;1.60;;
2438;SDS011;14509;47.992;7.848;2024-01-30T02:36:19;1.88;;;1.40;;
2438;SDS011;14509;47.992;7.848;2024-01-30T02:38:22;2.00;;;1.30;;
2438;SDS011;14509;47.992;7.848;2024-01-30T02:40:24;2.27;;;1.50;;
2438;SDS011;14509;47.992;7.848;2024-01-30T02:42:26;3.15;;;1.50;;
2438;SDS011;14509;47.992;7.848;2024-01-30T02:44:28;3.40;;;1.70;;
2438;SDS011;14509;47.992;7.848;2024-01-30T02:46:30;2.00;;;1.80;;
2438;SDS011;14509;47.992;7.848;2024-01-30T02:48:31;2.65;;;1.67;;
2438;SDS011;14509;47.992;7.848;2024-01-30T02:50:34;2.15;;;1.60;;
2438;SDS011;14509;47.992;7.848;2024-01-30T02:52:35;2.00;;;1.80;;
2438;SDS011;14509;47.992;7.848;2024-01-30T02:54:39;2.80;;;2.10;;
2438;SDS011;14509;47.992;7.848;2024-01-30T02:56:41;1.70;;;1.60;;
2438;SDS011;14509;47.992;7.848;2024-01-30T02:58:42;2.47;;;1.80;;
2438;SDS011;14509;47.992;7.848;2024-01-30T03:00:44;2.22;;;1.60;;
2438;SDS011;14509;47.992;7.848;2024-01-30T03:02:45;3.00;;;2.13;;
2438;SDS011;14509;47.992;7.848;2024-01-30T03:04:47;2.15;;;1.58;;
2438;SDS011;14509;47.992;7.848;2024-01-30T03:06:49;2.53;;;1.90;;
2438;SDS011;14509;47.992;7.848;2024-01-30T03:08:51;2.08;;;1.90;;
2438;SDS011;14509;47.992;7.848;2024-01-30T03:10:54;2.83;;;1.70;;
2438;SDS011;14509;47.992;7.848;2024-01-30T03:12:56;2.90;;;1.80;;
2438;SDS011;14509;47.992;7.848;2024-01-30T03:14:58;3.40;;;1.60;;
2438;SDS011;14509;47.992;7.848;2024-01-30T03:17:00;2.30;;;2.00;;
2438;SDS011;14509;47.992;7.848;2024-01-30T03:19:01;3.67;;;2.10;;
2438;SDS011;14509;47.992;7.848;2024-01-30T03:21:04;3.05;;;2.10;;
2438;SDS011;14509;47.992;7.848;2024-01-30T03:23:06;2.40;;;2.20;;
2438;SDS011;14509;47.992;7.848;2024-01-30T03:25:07;2.50;;;2.08;;
2438;SDS011;14509;47.992;7.848;2024-01-30T03:27:11;3.22;;;1.90;;
2438;SDS011;14509;47.992;7.848;2024-01-30T03:29:12;2.40;;;2.20;;
2438;SDS011;14509;47.992;7.848;2024-01-30T03:31:15;3.47;;;2.10;;
2438;SDS011;14509;47.992;7.848;2024-01-30T03:33:17;2.22;;;1.70;;
2438;SDS011;14509;47.992;7.848;2024-01-30T03:35:19;3.35;;;1.90;;
2438;SDS011;14509;47.992;7.848;2024-01-30T03:37:21;2.42;;;1.77;;
2438;SDS011;14509;47.992;7.848;2024-01-30T03:39:22;2.40;;;1.70;;
2438;SDS011;14509;47.992;7.848;2024-01-30T03:41:24;3.20;;;2.03;;
2438;SDS011;14509;47.992;7.848;2024-01-30T03:43:27;3.33;;;1.90;;
2438;SDS011;14509;47.992;7.848;2024-01-30T03:45:29;2.90;;;2.00;;
2438;SDS011;14509;47.992;7.848;2024-01-30T03:47:31;1.70;;;1.60;;
2438;SDS011;14509;47.992;7.848;2024-01-30T03:49:32;2.40;;;1.90;;
2438;SDS011;14509;47.992;7.848;2024-01-30T03:51:34;3.83;;;2.00;;
2438;SDS011;14509;47.992;7.848;2024-01-30T03:53:36;2.28;;;1.80;;
2438;SDS011;14509;47.992;7.848;2024-01-30T03:55:38;2.70;;;1.90;;
2438;SDS011;14509;47.992;7.848;2024-01-30T03:57:40;2.17;;;1.88;;
2438;SDS011;14509;47.992;7.848;2024-01-30T03:59:43;4.68;;;2.22;;
2438;SDS011;14509;47.992;7.848;2024-01-30T04:01:46;2.30;;;2.10;;
2438;SDS011;14509;47.992;7.848;2024-01-30T04:03:47;3.23;;;2.00;;
2438;SDS011;14509;47.992;7.848;2024-01-30T04:05:51;6.33;;;2.20;;
2438;SDS011;14509;47.992;7.848;2024-01-30T04:07:53;3.20;;;1.90;;
2438;SDS011;14509;47.992;7.848;2024-01-30T04:09:54;4.35;;;2.25;;
2438;SDS011;14509;47.992;7.848;2024-01-30T04:11:56;2.75;;;1.83;;
2438;SDS011;14509;47.992;7.848;2024-01-30T04:13:57;2.90;;;2.30;;
2438;SDS011;14509;47.992;7.848;2024-01-30T04:16:00;2.97;;;2.33;;
2438;SDS011;14509;47.992;7.848;2024-01-30T04:18:02;2.92;;;2.30;;
2438;SDS011;14509;47.992;7.848;2024-01-30T04:20:05;2.42;;;2.20;;
2438;SDS011;14509;47.992;7.848;2024-01-30T04:22:06;3.15;;;2.40;;
2438;SDS011;14509;47.992;7.848;2024-01-30T04:24:08;2.90;;;2.20;;
2438;SDS011;14509;47.992;7.848;2024-01-30T04:26:10;2.20;;;2.00;;
2438;SDS011;14509;47.992;7.848;2024-01-30T04:28:12;3.40;;;2.20;;
2438;SDS011;14509;47.992;7.848;2024-01-30T04:30:14;2.77;;;2.30;;
2438;SDS011;14509;47.992;7.848;2024-01-30T04:32:17;2.92;;;2.20;;
2438;SDS011;14509;47.992;7.848;2024-01-30T04:34:19;3.50;;;2.35;;
2438;SDS011;14509;47.992;7.848;2024-01-30T04:36:20;3.47;;;2.33;;
2438;SDS011;14509;47.992;7.848;2024-01-30T04:38:22;2.47;;;2.28;;
2438;SDS011;14509;47.992;7.848;2024-01-30T04:40:24;3.10;;;2.45;;
2438;SDS011;14509;47.992;7.848;2024-01-30T04:42:25;2.47;;;2.25;;
2438;SDS011;14509;47.992;7.848;2024-01-30T04:44:27;3.10;;;2.10;;
2438;SDS011;14509;47.992;7.848;2024-01-30T04:46:29;3.22;;;2.17;;
2438;SDS011;14509;47.992;7.848;2024-01-30T04:48:32;2.30;;;2.10;;
2438;SDS011;14509;47.992;7.848;2024-01-30T04:50:33;2.50;;;2.30;;
2438;SDS011;14509;47.992;7.848;2024-01-30T04:52:36;2.70;;;1.95;;
2438;SDS011;14509;47.992;7.848;2024-01-30T04:54:38;2.20;;;1.80;;
2438;SDS011;14509;47.992;7.848;2024-01-30T04:56:39;2.40;;;2.20;;
2438;SDS011;14509;47.992;7.848;2024-01-30T04:58:41;2.90;;;2.00;;
2438;SDS011;14509;47.992;7.848;2024-01-30T05:00:42;2.67;;;2.08;;
2438;SDS011;14509;47.992;7.848;2024-01-30T05:02:44;2.88;;;2.15;;
2438;SDS011;14509;47.992;7.848;2024-01-30T05:04:47;3.35;;;1.90;;
2438;SDS011;14509;47.992;7.848;2024-01-30T05:06:49;2.85;;;1.80;;
2438;SDS011;14509;47.992;7.848;2024-01-30T05:08:50;4.07;;;2.30;;
2438;SDS011;14509;47.992;7.848;2024-01-30T05:10:52;3.05;;;2.10;;
2438;SDS011;14509;47.992;7.848;2024-01-30T05:12:54;2.80;;;2.00;;
2438;SDS011;14509;47.992;7.848;2024-01-30T05:14:56;3.30;;;2.50;;
2438;SDS011;14509;47.992;7.848;2024-01-30T05:16:58;2.90;;;2.10;;
2438;SDS011;14509;47.992;7.848;2024-01-30T05:19:00;2.80;;;2.20;;
2438;SDS011;14509;47.992;7.848;2024-01-30T05:21:03;3.60;;;2.47;;
2438;SDS011;14509;47.992;7.848;2024-01-30T05:23:05;2.90;;;2.60;;
2438;SDS011;14509;47.992;7.848;2024-01-30T05:25:07;3.33;;;2.25;;
2438;SDS011;14509;47.992;7.848;2024-01-30T05:27:09;3.50;;;2.20;;
2438;SDS011;14509;47.992;7.848;2024-01-30T05:29:13;3.95;;;2.50;;
2438;SDS011;14509;47.992;7.848;2024-01-30T05:31:14;3.63;;;2.13;;
2438;SDS011;14509;47.992;7.848;2024-01-30T05:33:16;2.67;;;2.20;;
2438;SDS011;14509;47.992;7.848;2024-01-30T05:35:17;3.08;;;2.70;;
2438;SDS011;14509;47.992;7.848;2024-01-30T05:37:22;3.35;;;2.65;;
2438;SDS011;14509;47.992;7.848;2024-01-30T05:39:24;2.60;;;2.15;;
2438;SDS011;14509;47.992;7.848;2024-01-30T05:41:26;4.93;;;2.17;;
2438;SDS011;14509;47.992;7.848;2024-01-30T05:43:27;4.28;;;2.30;;
2438;SDS011;14509;47.992;7.848;2024-01-30T05:45:29;2.95;;;2.47;;
2438;SDS011;14509;47.992;7.848;2024-01-30T05:47:31;3.03;;;2.50;;
2438;SDS011;14509;47.992;7.848;2024-01-30T05:49:33;2.47;;;2.28;;
2438;SDS011;14509;47.992;7.848;2024-01-30T05:51:34;3.10;;;2.40;;
2438;SDS011;14509;47.992;7.848;2024-01-30T05:53:38;4.40;;;2.63;;
2438;SDS011;14509;47.992;7.848;2024-01-30T05:55:39;3.20;;;2.38;;
2438;SDS011;14509;47.992;7.848;2024-01-30T05:57:41;3.90;;;2.72;;
2438;SDS011;14509;47.992;7.848;2024-01-30T05:59:44;4.03;;;3.28;;
2438;SDS011;14509;47.992;7.848;2024-01-30T06:01:47;2.90;;;2.50;;
2438;SDS011;14509;47.992;7.848;2024-01-30T06:03:50;2.50;;;2.30;;
2438;SDS011;14509;47.992;7.848;2024-01-30T06:05:51;3.20;;;2.70;;
2438;SDS011;14509;47.992;7.848;2024-01-30T06:07:53;2.88;;;2.38;;
2438;SDS011;14509;47.992;7.848;2024-01-30T06:09:56;3.22;;;2.70;;
2438;SDS011;14509;47.992;7.848;2024-01-30T06:12:00;3.73;;;3.30;;
2438;SDS011;14509;47.992;7.848;2024-01-30T06:14:02;4.57;;;3.33;;
2438;SDS011;14509;47.992;7.848;2024-01-30T06:16:04;5.13;;;3.40;;
2438;SDS011;14509;47.992;7.848;2024-01-30T06:18:09;3.30;;;3.00;;
2438;SDS011;14509;47.992;7.848;2024-01-30T06:20:11;4.25;;;3.00;;
2438;SDS011;14509;47.992;7.848;2024-01-30T06:22:13;9.85;;;4.25;;
2438;SDS011;14509;47.992;7.848;2024-01-30T06:24:15;4.87;;;3.10;;
2438;SDS011;14509;47.992;7.848;2024-01-30T06:26:17;3.37;;;2.87;;
2438;SDS011;14509;47.992;7.848;2024-01-30T06:28:19;4.15;;;2.80;;
2438;SDS011;14509;47.992;7.848;2024-01-30T06:30:21;4.28;;;3.10;;
2438;SDS011;14509;47.992;7.848;2024-01-30T06:32:22;3.40;;;3.10;;
2438;SDS011;14509;47.992;7.848;2024-01-30T06:34:24;4.18;;;2.80;;
2438;SDS011;14509;47.992;7.848;2024-01-30T06:36:26;2.92;;;2.30;;
2438;SDS011;14509;47.992;7.848;2024-01-30T06:38:28;3.50;;;2.65;;
2438;SDS011;14509;47.992;7.848;2024-01-30T06:40:30;3.05;;;2.50;;
2438;SDS011;14509;47.992;7.848;2024-01-30T06:42:33;4.88;;;2.70;;
2438;SDS011;14509;47.992;7.848;2024-01-30T06:44:35;2.70;;;2.40;;
2438;SDS011;14509;47.992;7.848;2024-01-30T06:46:38;3.35;;;2.90;;
2438;SDS011;14509;47.992;7.848;2024-01-30T06:48:40;3.35;;;2.55;;
2438;SDS011;14509;47.992;7.848;2024-01-30T06:50:44;3.70;;;2.55;;
2438;SDS011;14509;47.992;7.848;2024-01-30T06:52:48;5.43;;;2.95;;
2438;SDS011;14509;47.992;7.848;2024-01-30T06:54:48;3.90;;;2.90;;
2438;SDS011;14509;47.992;7.848;2024-01-30T06:56:50;3.08;;;2.65;;
2438;SDS011;14509;47.992;7.848;2024-01-30T06:58:54;3.72;;;2.80;;
2438;SDS011;14509;47.992;7.848;2024-01-30T07:00:57;5.05;;;3.30;;
2438;SDS011;14509;47.992;7.848;2024-01-30T07:02:58;4.68;;;3.03;;
2438;SDS011;14509;47.992;7.848;2024-01-30T07:05:00;4.80;;;2.50;;
2438;SDS011;14509;47.992;7.848;2024-01-30T07:07:02;3.10;;;2.80;;
2438;SDS011;14509;47.992;7.848;2024-01-30T07:09:05;4.05;;;2.67;;
2438;SDS011;14509;47.992;7.848;2024-01-30T07:11:06;3.90;;;3.00;;
2438;SDS011;14509;47.992;7.848;2024-01-30T07:13:08;4.40;;;2.88;;
2438;SDS011;14509;47.992;7.848;2024-01-30T07:15:11;4.07;;;3.00;;
2438;SDS011;14509;47.992;7.848;2024-01-30T07:17:16;5.00;;;3.00;;
2438;SDS011;14509;47.992;7.848;2024-01-30T07:19:18;4.50;;;2.85;;
2438;SDS011;14509;47.992;7.848;2024-01-30T07:21:20;3.53;;;2.80;;
2438;SDS011;14509;47.992;7.848;2024-01-30T07:23:27;2.67;;;2.47;;
2438;SDS011;14509;47.992;7.848;2024-01-30T07:25:30;5.50;;;3.10;;
2438;SDS011;14509;47.992;7.848;2024-01-30T07:27:32;4.07;;;2.92;;
2438;SDS011;14509;47.992;7.848;2024-01-30T07:29:33;4.50;;;2.90;;
2438;SDS011;14509;47.992;7.848;2024-01-30T07:31:37;3.30;;;2.90;;
2438;SDS011;14509;47.992;7.848;2024-01-30T07:33:37;6.63;;;3.20;;
2438;SDS011;14509;47.992;7.848;2024-01-30T07:35:39;3.60;;;2.60;;
2438;SDS011;14509;47.992;7.848;2024-01-30T07:37:41;3.80;;;2.80;;
2438;SDS011;14509;47.992;7.848;2024-01-30T07:39:43;3.33;;;3.03;;
2438;SDS011;14509;47.992;7.848;2024-01-30T07:41:45;3.72;;;2.65;;
2438;SDS011;14509;47.992;7.848;2024-01-30T07:43:47;3.33;;;2.58;;
2438;SDS011;14509;47.992;7.848;2024-01-30T07:45:49;4.00;;;2.75;;
2438;SDS011;14509;47.992;7.848;2024-01-30T07:47:52;3.65;;;3.10;;
2438;SDS011;14509;47.992;7.848;2024-01-30T07:49:54;3.50;;;2.88;;
2438;SDS011;14509;47.992;7.848;2024-01-30T07:51:55;3.58;;;2.80;;
2438;SDS011;14509;47.992;7.848;2024-01-30T07:53:57;2.72;;;2.50;;
2438;SDS011;14509;47.992;7.848;2024-01-30T07:55:59;4.20;;;3.17;;
2438;SDS011;14509;47.992;7.848;2024-01-30T07:58:01;4.28;;;3.60;;
2438;SDS011;14509;47.992;7.848;2024-01-30T08:00:04;6.35;;;4.13;;
2438;SDS011;14509;47.992;7.848;2024-01-30T08:02:08;7.18;;;3.28;;
2438;SDS011;14509;47.992;7.848;2024-01-30T08:04:11;5.90;;;4.50;;
2438;SDS011;14509;47.992;7.848;2024-01-30T08:06:12;5.95;;;3.85;;
2438;SDS011;14509;47.992;7.848;2024-01-30T08:08:14;4.68;;;3.25;;
2438;SDS011;14509;47.992;7.848;2024-01-30T08:10:16;9.68;;;4.18;;
2438;SDS011;14509;47.992;7.848;2024-01-30T08:12:19;5.10;;;3.80;;
2438;SDS011;14509;47.992;7.848;2024-01-30T08:14:20;6.95;;;4.30;;
2438;SDS011;14509;47.992;7.848;2024-01-30T08:16:22;8.38;;;5.10;;
2438;SDS011;14509;47.992;7.848;2024-01-30T08:18:24;30.45;;;9.18;;
2438;SDS011;14509;47.992;7.848;2024-01-30T08:20:27;16.25;;;6.10;;
2438;SDS011;14509;47.992;7.848;2024-01-30T08:22:29;15.90;;;5.10;;
2438;SDS011;14509;47.992;7.848;2024-01-30T08:24:31;13.87;;;6.17;;
2438;SDS011;14509;47.992;7.848;2024-01-30T08:26:33;16.30;;;6.23;;
2438;SDS011;14509;47.992;7.848;2024-01-30T08:28:35;12.45;;;5.30;;
2438;SDS011;14509;47.992;7.848;2024-01-30T08:30:37;10.52;;;5.68;;
2438;SDS011;14509;47.992;7.848;2024-01-30T08:32:40;4.70;;;2.80;;
2438;SDS011;14509;47.992;7.848;2024-01-30T08:34:41;3.08;;;2.78;;
2438;SDS011;14509;47.992;7.848;2024-01-30T08:36:45;2.90;;;2.60;;
2438;SDS011;14509;47.992;7.848;2024-01-30T08:38:47;3.95;;;3.00;;
2438;SDS011;14509;47.992;7.848;2024-01-30T08:40:49;3.15;;;2.63;;
2438;SDS011;14509;47.992;7.848;2024-01-30T08:42:51;3.17;;;2.85;;
2438;SDS011;14509;47.992;7.848;2024-01-30T08:44:52;5.30;;;3.05;;
2438;SDS011;14509;47.992;7.848;2024-01-30T08:46:55;5.53;;;3.50;;
2438;SDS011;14509;47.992;7.848;2024-01-30T08:48:57;5.38;;;3.50;;
2438;SDS011;14509;47.992;7.848;2024-01-30T08:50:59;3.85;;;2.70;;
2438;SDS011;14509;47.992;7.848;2024-01-30T08:53:02;3.45;;;2.78;;
2438;SDS011;14509;47.992;7.848;2024-01-30T08:55:05;3.20;;;2.70;;
2438;SDS011;14509;47.992;7.848;2024-01-30T08:57:07;3.90;;;2.83;;
2438;SDS011;14509;47.992;7.848;2024-01-30T08:59:09;3.30;;;2.70;;
2438;SDS011;14509;47.992;7.848;2024-01-30T09:01:11;3.17;;;2.45;;
2438;SDS011;14509;47.992;7.848;2024-01-30T09:03:13;4.65;;;2.90;;
2438;SDS011;14509;47.992;7.848;2024-01-30T09:05:15;3.88;;;2.90;;
2438;SDS011;14509;47.992;7.848;2024-01-30T09:07:17;4.07;;;3.00;;
2438;SDS011;14509;47.992;7.848;2024-01-30T09:09:20;3.30;;;2.70;;
2438;SDS011;14509;47.992;7.848;2024-01-30T09:11:22;3.35;;;2.88;;
2438;SDS011;14509;47.992;7.848;2024-01-30T09:13:23;4.75;;;2.72;;
2438;SDS011;14509;47.992;7.848;2024-01-30T09:15:25;3.53;;;2.70;;
2438;SDS011;14509;47.992;7.848;2024-01-30T09:17:27;3.45;;;2.90;;
2438;SDS011;14509;47.992;7.848;2024-01-30T09:19:28;5.43;;;3.10;;
2438;SDS011;14509;47.992;7.848;2024-01-30T09:21:30;4.07;;;3.00;;
2438;SDS011;14509;47.992;7.848;2024-01-30T09:23:32;4.13;;;2.75;;
2438;SDS011;14509;47.992;7.848;2024-01-30T09:25:35;4.65;;;3.10;;
2438;SDS011;14509;47.992;7.848;2024-01-30T09:27:37;6.20;;;3.30;;
2438;SDS011;14509;47.992;7.848;2024-01-30T09:29:40;3.10;;;2.80;;
2438;SDS011;14509;47.992;7.848;2024-01-30T09:31:42;5.43;;;3.40;;
2438;SDS011;14509;47.992;7.848;2024-01-30T09:33:44;5.10;;;2.90;;
2438;SDS011;14509;47.992;7.848;2024-01-30T09:35:48;5.10;;;3.22;;
2438;SDS011;14509;47.992;7.848;2024-01-30T09:37:50;3.65;;;2.85;;
2438;SDS011;14509;47.992;7.848;2024-01-30T09:39:52;3.95;;;3.10;;
2438;SDS011;14509;47.992;7.848;2024-01-30T09:41:58;5.95;;;2.70;;
2438;SDS011;14509;47.992;7.848;2024-01-30T09:44:05;4.70;;;3.20;;
2438;SDS011;14509;47.992;7.848;2024-01-30T09:46:11;3.20;;;2.80;;
2438;SDS011;14509;47.992;7.848;2024-01-30T09:48:14;5.00;;;2.97;;
2438;SDS011;14509;47.992;7.848;2024-01-30T09:50:17;3.20;;;2.83;;
2438;SDS011;14509;47.992;7.848;2024-01-30T09:52:19;4.55;;;3.30;;
2438;SDS011;14509;47.992;7.848;2024-01-30T09:54:20;3.40;;;3.10;;
2438;SDS011;14509;47.992;7.848;2024-01-30T09:56:23;4.25;;;3.15;;
2438;SDS011;14509;47.992;7.848;2024-01-30T09:58:26;5.30;;;3.20;;
2438;SDS011;14509;47.992;7.848;2024-01-30T10:00:28;4.53;;;3.10;;
2438;SDS011;14509;47.992;7.848;2024-01-30T10:02:30;5.43;;;3.38;;
2438;SDS011;14509;47.992;7.848;2024-01-30T10:04:33;3.80;;;2.90;;
2438;SDS011;14509;47.992;7.848;2024-01-30T10:06:34;2.80;;;2.55;;
2438;SDS011;14509;47.992;7.848;2024-01-30T10:08:36;6.20;;;3.60;;
2438;SDS011;14509;47.992;7.848;2024-01-30T10:10:38;7.30;;;4.90;;
2438;SDS011;14509;47.992;7.848;2024-01-30T10:12:40;5.00;;;3.27;;
2438;SDS011;14509;47.992;7.848;2024-01-30T10:14:43;4.53;;;3.10;;
2438;SDS011;14509;47.992;7.848;2024-01-30T10:16:45;5.03;;;3.30;;
2438;SDS011;14509;47.992;7.848;2024-01-30T10:18:46;4.47;;;2.95;;
2438;SDS011;14509;47.992;7.848;2024-01-30T10:20:48;4.72;;;2.80;;
2438;SDS011;14509;47.992;7.848;2024-01-30T10:22:50;6.78;;;3.10;;
2438;SDS011;14509;47.992;7.848;2024-01-30T10:24:52;4.35;;;3.45;;
2438;SDS011;14509;47.992;7.848;2024-01-30T10:26:54;4.47;;;3.10;;
2438;SDS011;14509;47.992;7.848;2024-01-30T10:28:57;5.90;;;3.40;;
2438;SDS011;14509;47.992;7.848;2024-01-30T10:31:00;4.30;;;3.60;;
2438;SDS011;14509;47.992;7.848;2024-01-30T10:33:04;4.00;;;3.15;;
2438;SDS011;14509;47.992;7.848;2024-01-30T10:35:06;4.80;;;2.90;;
2438;SDS011;14509;47.992;7.848;2024-01-30T10:37:09;5.18;;;3.30;;
2438;SDS011;14509;47.992;7.848;2024-01-30T10:39:12;3.85;;;2.70;;
2438;SDS011;14509;47.992;7.848;2024-01-30T10:41:19;6.38;;;3.45;;
2438;SDS011;14509;47.992;7.848;2024-01-30T10:44:02;4.78;;;2.70;;
2438;SDS011;14509;47.992;7.848;2024-01-30T10:46:18;4.85;;;2.88;;
2438;SDS011;14509;47.992;7.848;2024-01-30T10:48:22;3.60;;;2.40;;
2438;SDS011;14509;47.992;7.848;2024-01-30T10:50:30;3.83;;;2.55;;
2438;SDS011;14509;47.992;7.848;2024-01-30T10:52:34;3.30;;;2.30;;
2438;SDS011;14509;47.992;7.848;2024-01-30T10:54:36;2.95;;;2.30;;
2438;SDS011;14509;47.992;7.848;2024-01-30T10:56:38;3.50;;;2.60;;
2438;SDS011;14509;47.992;7.848;2024-01-30T10:58:42;2.97;;;2.33;;
2438;SDS011;14509;47.992;7.848;2024-01-30T11:00:44;2.60;;;2.20;;
2438;SDS011;14509;47.992;7.848;2024-01-30T11:02:48;3.25;;;2.30;;
2438;SDS011;14509;47.992;7.848;2024-01-30T11:04:54;2.73;;;2.20;;
2438;SDS011;14509;47.992;7.848;2024-01-30T11:06:58;3.38;;;2.10;;
2438;SDS011;14509;47.992;7.848;2024-01-30T11:09:01;2.00;;;1.80;;
2438;SDS011;14509;47.992;7.848;2024-01-30T11:11:08;2.63;;;2.20;;
2438;SDS011;14509;47.992;7.848;2024-01-30T11:13:12;3.25;;;2.63;;
2438;SDS011;14509;47.992;7.848;2024-01-30T11:15:15;4.13;;;2.30;;
2438;SDS011;14509;47.992;7.848;2024-01-30T11:17:18;3.17;;;1.92;;
2438;SDS011;14509;47.992;7.848;2024-01-30T11:19:24;3.20;;;2.50;;
2438;SDS011;14509;47.992;7.848;2024-01-30T11:21:27;2.88;;;2.20;;
2438;SDS011;14509;47.992;7.848;2024-01-30T11:23:29;3.58;;;2.60;;
2438;SDS011;14509;47.992;7.848;2024-01-30T11:25:32;2.60;;;2.20;;
2438;SDS011;14509;47.992;7.848;2024-01-30T11:27:37;2.92;;;1.80;;
2438;SDS011;14509;47.992;7.848;2024-01-30T11:29:40;3.20;;;2.22;;
2438;SDS011;14509;47.992;7.848;2024-01-30T11:31:51;2.53;;;2.20;;
2438;SDS011;14509;47.992;7.848;2024-01-30T11:33:53;2.40;;;1.90;;
2438;SDS011;14509;47.992;7.848;2024-01-30T11:36:00;2.40;;;2.20;;
2438;SDS011;14509;47.992;7.848;2024-01-30T11:38:03;2.15;;;1.95;;
2438;SDS011;14509;47.992;7.848;2024-01-30T11:40:08;3.00;;;2.20;;
2438;SDS011;14509;47.992;7.848;2024-01-30T11:42:11;3.42;;;2.47;;
2438;SDS011;14509;47.992;7.848;2024-01-30T11:44:13;2.40;;;2.17;;
2438;SDS011;14509;47.992;7.848;2024-01-30T11:46:16;2.83;;;2.03;;
2438;SDS011;14509;47.992;7.848;2024-01-30T11:48:19;4.55;;;2.15;;
2438;SDS011;14509;47.992;7.848;2024-01-30T11:50:21;2.80;;;2.30;;
2438;SDS011;14509;47.992;7.848;2024-01-30T11:52:23;3.30;;;2.28;;
2438;SDS011;14509;47.992;7.848;2024-01-30T11:54:26;3.08;;;2.50;;
2438;SDS011;14509;47.992;7.848;2024-01-30T11:56:27;3.25;;;2.10;;
2438;SDS011;14509;47.992;7.848;2024-01-30T11:58:29;2.50;;;2.20;;
2438;SDS011;14509;47.992;7.848;2024-01-30T12:00:32;3.60;;;2.17;;
2438;SDS011;14509;47.992;7.848;2024-01-30T12:02:34;3.10;;;2.60;;
2438;SDS011;14509;47.992;7.848;2024-01-30T12:04:36;3.42;;;2.50;;
2438;SDS011;14509;47.992;7.848;2024-01-30T12:06:38;2.60;;;2.40;;
2438;SDS011;14509;47.992;7.848;2024-01-30T12:08:42;5.50;;;2.10;;
2438;SDS011;14509;47.992;7.848;2024-01-30T12:10:56;3.63;;;2.10;;
2438;SDS011;14509;47.992;7.848;2024-01-30T12:13:00;3.30;;;2.15;;
2438;SDS011;14509;47.992;7.848;2024-01-30T12:15:03;3.65;;;2.40;;
2438;SDS011;14509;47.992;7.848;2024-01-30T12:17:05;3.95;;;2.38;;
2438;SDS011;14509;47.992;7.848;2024-01-30T12:19:09;4.35;;;2.70;;
2438;SDS011;14509;47.992;7.848;2024-01-30T12:21:11;3.58;;;2.60;;
2438;SDS011;14509;47.992;7.848;2024-01-30T12:23:14;4.20;;;2.40;;
2438;SDS011;14509;47.992;7.848;2024-01-30T12:25:17;2.90;;;2.45;;
2438;SDS011;14509;47.992;7.848;2024-01-30T12:27:21;3.10;;;2.45;;
2438;SDS011;14509;47.992;7.848;2024-01-30T12:29:23;3.15;;;2.78;;